createdAt,value
2023-06-05T00:00:14.128Z,14.8
2023-06-05T00:01:27.189Z,14.8
2023-06-05T00:02:40.313Z,14.8
2023-06-05T00:03:53.329Z,14.8
2023-06-05T00:05:06.270Z,14.8
2023-06-05T00:06:19.164Z,14.8
2023-06-05T00:07:32.164Z,14.6
2023-06-05T00:08:45.104Z,14.8
2023-06-05T00:09:58.113Z,14.8
2023-06-05T00:11:11.296Z,14.8
2023-06-05T00:12:24.123Z,14.8
2023-06-05T00:13:37.140Z,14.8
2023-06-05T00:14:50.123Z,14.8
2023-06-05T00:16:03.143Z,14.8
2023-06-05T00:17:16.174Z,14.6
2023-06-05T00:18:29.149Z,14.6
2023-06-05T00:19:42.142Z,14.6
2023-06-05T00:20:55.251Z,14.6
2023-06-05T00:22:08.181Z,14.6
2023-06-05T00:23:21.148Z,14.6
2023-06-05T00:24:34.332Z,14.6
2023-06-05T00:25:47.154Z,14.6
2023-06-05T00:27:00.208Z,14.6
2023-06-05T00:28:13.155Z,14.6
2023-06-05T00:29:26.197Z,14.6
2023-06-05T00:30:39.146Z,14.4
2023-06-05T00:31:52.186Z,14.4
2023-06-05T00:33:05.250Z,14.4
2023-06-05T00:34:18.228Z,14.4
2023-06-05T00:35:31.166Z,14.4
2023-06-05T00:36:44.138Z,14.4
2023-06-05T00:37:57.152Z,14.4
2023-06-05T00:39:10.159Z,14.4
2023-06-05T00:40:23.152Z,14.4
2023-06-05T00:41:36.211Z,14.4
2023-06-05T00:42:49.187Z,14.5
2023-06-05T00:44:02.159Z,14.5
2023-06-05T00:45:15.161Z,14.5
2023-06-05T00:46:27.852Z,14.4
2023-06-05T00:47:41.159Z,14.3
2023-06-05T00:48:54.297Z,14.3
2023-06-05T00:50:07.165Z,14.3
2023-06-05T00:51:20.167Z,14.3
2023-06-05T00:52:33.141Z,14.3
2023-06-05T00:53:46.132Z,14.3
2023-06-05T00:54:59.168Z,14.3
2023-06-05T00:56:12.318Z,14.3
2023-06-05T00:57:25.130Z,14.3
2023-06-05T00:58:38.141Z,14.3
2023-06-05T00:59:51.182Z,14.3
2023-06-05T01:01:04.241Z,14.3
2023-06-05T01:02:17.186Z,14.3
2023-06-05T01:03:30.261Z,14.3
2023-06-05T01:04:43.133Z,14.3
2023-06-05T01:05:56.166Z,14.3
2023-06-05T01:07:09.149Z,14.2
2023-06-05T01:08:22.161Z,14.2
2023-06-05T01:09:35.128Z,14.2
2023-06-05T01:10:48.158Z,14.2
2023-06-05T01:12:01.199Z,14.2
2023-06-05T01:13:14.129Z,14.2
2023-06-05T01:14:27.271Z,14.2
2023-06-05T01:15:40.169Z,14.2
2023-06-05T01:16:53.207Z,14.1
2023-06-05T01:18:06.222Z,14.1
2023-06-05T01:19:19.284Z,14.1
2023-06-05T01:20:32.166Z,14.1
2023-06-05T01:31:29.436Z,13.9
2023-06-05T01:49:44.112Z,13.6
2023-06-05T01:50:57.163Z,13.5
2023-06-05T01:52:10.196Z,13.5
2023-06-05T01:53:23.222Z,13.5
2023-06-05T01:54:36.139Z,13.5
2023-06-05T01:55:49.030Z,13.5
2023-06-05T01:57:02.154Z,13.6
2023-06-05T01:58:15.089Z,13.6
2023-06-05T01:59:28.401Z,13.4
2023-06-05T02:00:41.485Z,13.4
2023-06-05T02:01:54.196Z,13.4
2023-06-05T02:03:07.370Z,13.4
2023-06-05T02:04:20.177Z,13.4
2023-06-05T02:05:33.086Z,13.4
2023-06-05T02:06:45.992Z,13.4
2023-06-05T02:07:59.131Z,13.2
2023-06-05T02:09:12.114Z,13.2
2023-06-05T02:10:25.341Z,13.2
2023-06-05T02:11:38.190Z,13.2
2023-06-05T02:12:51.155Z,13.1
2023-06-05T02:14:04.297Z,13.1
2023-06-05T02:15:17.322Z,13.2
2023-06-05T02:16:30.224Z,13.2
2023-06-05T02:17:43.170Z,13.2
2023-06-05T02:18:56.172Z,13.2
2023-06-05T02:20:09.141Z,13
2023-06-05T02:21:22.095Z,13
2023-06-05T02:22:35.144Z,13
2023-06-05T02:23:48.312Z,13
2023-06-05T02:25:01.160Z,13
2023-06-05T02:26:14.144Z,13
2023-06-05T02:27:27.167Z,13
2023-06-05T02:28:40.142Z,13
2023-06-05T02:29:53.153Z,12.8
2023-06-05T02:31:06.187Z,12.8
2023-06-05T02:32:19.214Z,12.8
2023-06-05T02:33:32.191Z,12.8
2023-06-05T02:34:45.102Z,12.9
2023-06-05T02:35:58.094Z,12.7
2023-06-05T02:37:11.140Z,12.7
2023-06-05T02:38:24.119Z,12.7
2023-06-05T02:39:37.142Z,12.7
2023-06-05T02:40:50.155Z,12.7
2023-06-05T02:42:03.134Z,12.7
2023-06-05T02:43:16.160Z,12.7
2023-06-05T02:44:29.156Z,12.7
2023-06-05T02:45:42.105Z,12.6
2023-06-05T02:46:55.109Z,12.6
2023-06-05T02:48:08.185Z,12.6
2023-06-05T02:49:21.107Z,12.6
2023-06-05T02:50:34.192Z,12.6
2023-06-05T02:51:47.425Z,12.6
2023-06-05T02:53:00.234Z,12.6
2023-06-05T02:54:13.236Z,12.5
2023-06-05T02:55:26.060Z,12.4
2023-06-05T02:56:39.305Z,12.4
2023-06-05T02:57:52.194Z,12.4
2023-06-05T02:59:05.133Z,12.4
2023-06-05T03:25:51.192Z,12.1
2023-06-05T03:27:04.108Z,12.1
2023-06-05T03:28:17.021Z,12.1
2023-06-05T03:29:30.088Z,12.1
2023-06-05T03:30:43.109Z,12.1
2023-06-05T03:31:56.202Z,12.1
2023-06-05T03:33:09.174Z,12.1
2023-06-05T03:34:22.118Z,12.1
2023-06-05T03:35:35.106Z,12.1
2023-06-05T03:38:01.159Z,12.1
2023-06-05T03:39:14.105Z,12.1
2023-06-05T03:40:27.099Z,12.1
2023-06-05T03:41:40.086Z,12.1
2023-06-05T03:42:53.091Z,12.1
2023-06-05T03:44:06.089Z,12.1
2023-06-05T03:45:19.152Z,12.1
2023-06-05T03:46:32.122Z,11.9
2023-06-05T03:47:45.090Z,12.1
2023-06-05T03:48:58.092Z,12.1
2023-06-05T03:50:11.097Z,12.1
2023-06-05T03:51:23.958Z,11.9
2023-06-05T03:52:37.105Z,11.9
2023-06-05T03:53:50.124Z,11.9
2023-06-05T03:55:03.080Z,11.9
2023-06-05T03:56:16.132Z,11.9
2023-06-05T03:57:28.989Z,11.9
2023-06-05T03:58:42.063Z,11.9
2023-06-05T03:59:55.104Z,11.9
2023-06-05T04:01:08.241Z,11.9
2023-06-05T04:02:21.237Z,11.9
2023-06-05T04:03:34.128Z,11.9
2023-06-05T04:04:47.129Z,11.9
2023-06-05T04:06:00.157Z,11.9
2023-06-05T04:07:12.940Z,12.2
2023-06-05T04:08:26.066Z,12.4
2023-06-05T04:09:39.071Z,12.7
2023-06-05T04:10:52.283Z,12.9
2023-06-05T04:12:05.111Z,13.2
2023-06-05T04:13:18.108Z,13.4
2023-06-05T04:14:31.129Z,13.4
2023-06-05T04:15:44.156Z,13.7
2023-06-05T04:16:57.169Z,13.8
2023-06-05T04:18:10.297Z,14
2023-06-05T04:19:23.169Z,14.1
2023-06-05T04:20:36.109Z,14.4
2023-06-05T04:21:49.118Z,14.4
2023-06-05T04:23:02.104Z,14.6
2023-06-05T04:24:15.052Z,14.8
2023-06-05T04:25:27.968Z,14.8
2023-06-05T04:26:41.251Z,14.9
2023-06-05T04:27:54.278Z,15.1
2023-06-05T04:29:07.274Z,15.3
2023-06-05T04:30:20.212Z,15.4
2023-06-05T04:31:33.164Z,15.6
2023-06-05T04:32:46.214Z,15.7
2023-06-05T04:33:59.116Z,15.8
2023-06-05T04:35:12.053Z,16.1
2023-06-05T04:36:25.131Z,16.2
2023-06-05T04:37:38.221Z,16.3
2023-06-05T04:38:51.209Z,16.6
2023-06-05T04:40:04.124Z,16.6
2023-06-05T04:41:17.444Z,16.7
2023-06-05T04:42:30.094Z,16.7
2023-06-05T04:43:43.077Z,16.7
2023-06-05T04:44:56.122Z,16.5
2023-06-05T04:46:09.286Z,16.3
2023-06-05T04:47:22.148Z,16.1
2023-06-05T04:48:35.072Z,15.9
2023-06-05T04:49:48.196Z,15.7
2023-06-05T04:51:01.089Z,15.7
2023-06-05T04:52:14.088Z,15.6
2023-06-05T04:53:27.129Z,15.5
2023-06-05T04:54:40.084Z,15.5
2023-06-05T04:55:53.074Z,15.3
2023-06-05T04:57:06.067Z,15.2
2023-06-05T04:58:19.080Z,15.2
2023-06-05T04:59:31.954Z,15.2
2023-06-05T05:00:45.049Z,15.2
2023-06-05T05:01:58.119Z,15.2
2023-06-05T05:03:11.197Z,14.9
2023-06-05T05:04:24.157Z,14.9
2023-06-05T05:05:37.091Z,14.9
2023-06-05T05:06:50.088Z,14.9
2023-06-05T05:08:03.082Z,14.9
2023-06-05T05:09:16.269Z,14.9
2023-06-05T05:10:29.058Z,14.9
2023-06-05T05:11:42.056Z,14.9
2023-06-05T05:12:55.073Z,14.9
2023-06-05T05:14:08.079Z,14.9
2023-06-05T05:15:21.243Z,14.9
2023-06-05T05:16:34.914Z,14.9
2023-06-05T05:17:47.089Z,14.9
2023-06-05T05:19:00.188Z,14.9
2023-06-05T05:20:13.045Z,14.9
2023-06-05T05:21:26.103Z,14.9
2023-06-05T05:22:39.082Z,14.9
2023-06-05T05:23:52.141Z,14.9
2023-06-05T05:25:05.058Z,14.9
2023-06-05T05:26:18.080Z,14.9
2023-06-05T05:27:31.102Z,14.9
2023-06-05T05:28:44.165Z,15.1
2023-06-05T05:29:57.044Z,15.1
2023-06-05T05:31:10.423Z,15.1
2023-06-05T05:32:23.156Z,15.1
2023-06-05T05:33:36.054Z,15.1
2023-06-05T05:34:49.090Z,15.1
2023-06-05T05:36:02.069Z,15.1
2023-06-05T05:37:15.071Z,15.2
2023-06-05T05:38:28.166Z,15.2
2023-06-05T05:39:41.179Z,15.2
2023-06-05T05:40:54.049Z,15.2
2023-06-05T05:42:07.065Z,15.3
2023-06-05T05:43:20.064Z,15.3
2023-06-05T05:44:33.083Z,15.3
2023-06-05T05:45:46.140Z,15.6
2023-06-05T05:46:59.093Z,15.5
2023-06-05T05:48:12.089Z,15.5
2023-06-05T05:49:25.071Z,15.7
2023-06-05T05:50:38.127Z,15.7
2023-06-05T05:51:51.072Z,15.9
2023-06-05T05:53:04.128Z,15.8
2023-06-05T05:54:17.005Z,15.8
2023-06-05T05:55:30.052Z,15.8
2023-06-05T05:56:43.037Z,15.8
2023-06-05T05:57:56.086Z,15.9
2023-06-05T05:59:09.180Z,16
2023-06-05T06:00:22.093Z,16.1
2023-06-05T06:01:35.090Z,16.2
2023-06-05T06:02:48.198Z,16.2
2023-06-05T06:04:01.205Z,16.3
2023-06-05T06:05:14.095Z,16.3
2023-06-05T06:06:27.148Z,16.3
2023-06-05T06:07:40.043Z,16.3
2023-06-05T06:08:53.068Z,16.3
2023-06-05T06:10:06.139Z,16.3
2023-06-05T06:11:19.059Z,16.3
2023-06-05T06:12:32.052Z,16.3
2023-06-05T06:13:45.025Z,16.3
2023-06-05T06:14:58.060Z,16.3
2023-06-05T06:16:11.075Z,16.3
2023-06-05T06:17:24.084Z,16.5
2023-06-05T06:18:37.210Z,16.5
2023-06-05T06:19:50.056Z,16.5
2023-06-05T06:21:03.074Z,16.5
2023-06-05T06:22:16.076Z,16.6
2023-06-05T06:23:29.086Z,16.6
2023-06-05T06:24:42.153Z,16.6
2023-06-05T06:25:55.106Z,16.7
2023-06-05T06:27:22.277Z,16.8
2023-06-05T06:28:21.297Z,16.8
2023-06-05T06:29:34.179Z,17
2023-06-05T06:30:47.132Z,16.9
2023-06-05T06:32:00.092Z,17.1
2023-06-05T06:33:13.107Z,17.1
2023-06-05T06:34:26.057Z,17.1
2023-06-05T06:35:39.079Z,17.3
2023-06-05T06:36:52.072Z,17.3
2023-06-05T06:38:05.076Z,17.3
2023-06-05T06:39:18.051Z,17.4
2023-06-05T06:40:31.091Z,17.4
2023-06-05T06:41:44.016Z,17.7
2023-06-05T06:42:57.079Z,17.7
2023-06-05T06:44:10.118Z,17.7
2023-06-05T06:45:23.032Z,17.8
2023-06-05T06:46:36.079Z,17.8
2023-06-05T06:47:55.680Z,17.9
2023-06-05T06:49:02.114Z,17.9
2023-06-05T06:50:15.005Z,17.9
2023-06-05T06:51:28.020Z,18.1
2023-06-05T06:52:41.028Z,18.1
2023-06-05T06:53:54.050Z,18.1
2023-06-05T06:55:07.023Z,18.1
2023-06-05T06:56:20.091Z,18.1
2023-06-05T06:57:33.100Z,18.3
2023-06-05T06:58:46.009Z,18.3
2023-06-05T06:59:59.034Z,18.5
2023-06-05T07:01:12.165Z,18.4
2023-06-05T07:02:25.127Z,18.4
2023-06-05T07:03:38.043Z,18.4
2023-06-05T07:04:51.061Z,18.5
2023-06-05T07:06:04.199Z,18.6
2023-06-05T07:07:17.017Z,18.6
2023-06-05T07:08:30.200Z,18.7
2023-06-05T07:09:43.044Z,18.8
2023-06-05T07:10:56.107Z,18.6
2023-06-05T07:12:09.093Z,18.7
2023-06-05T07:13:22.030Z,18.7
2023-06-05T07:14:35.152Z,18.7
2023-06-05T07:15:48.044Z,18.8
2023-06-05T07:17:03.541Z,19.1
2023-06-05T07:18:14.221Z,19.2
2023-06-05T07:19:27.124Z,19.3
2023-06-05T07:20:40.099Z,19.3
2023-06-05T07:21:53.050Z,19.3
2023-06-05T07:23:06.012Z,19.4
2023-06-05T07:24:19.000Z,19.4
2023-06-05T07:25:32.055Z,19.6
2023-06-05T07:26:45.070Z,19.6
2023-06-05T07:27:58.056Z,19.6
2023-06-05T07:29:11.051Z,19.6
2023-06-05T07:30:24.124Z,19.6
2023-06-05T07:31:37.050Z,19.7
2023-06-05T07:32:50.068Z,19.8
2023-06-05T07:34:03.036Z,19.7
2023-06-05T07:35:16.034Z,19.9
2023-06-05T07:36:29.191Z,19.9
2023-06-05T07:37:42.016Z,19.9
2023-06-05T07:38:55.009Z,19.9
2023-06-05T07:40:08.070Z,20.1
2023-06-05T07:41:21.048Z,20.1
2023-06-05T07:42:34.019Z,20.1
2023-06-05T07:43:47.006Z,20.1
2023-06-05T07:45:00.010Z,20.2
2023-06-05T07:46:13.211Z,20.3
2023-06-05T07:47:27.006Z,20.4
2023-06-05T07:48:39.036Z,20.4
2023-06-05T07:49:52.153Z,20.4
2023-06-05T07:51:05.214Z,20.6
2023-06-05T07:52:18.002Z,20.6
2023-06-05T07:53:31.122Z,20.6
2023-06-05T07:54:44.159Z,20.6
2023-06-05T07:55:57.028Z,20.8
2023-06-05T07:57:10.030Z,20.8
2023-06-05T07:58:23.020Z,20.9
2023-06-05T07:59:36.091Z,20.9
2023-06-05T08:00:49.095Z,21.2
2023-06-05T08:02:02.035Z,21.2
2023-06-05T08:03:15.184Z,21.2
2023-06-05T08:04:28.240Z,21.2
2023-06-05T08:05:41.193Z,21.3
2023-06-05T08:06:54.070Z,21.3
2023-06-05T08:08:07.008Z,21.3
2023-06-05T08:09:20.003Z,21.3
2023-06-05T08:10:32.989Z,21.3
2023-06-05T08:11:46.018Z,21.3
2023-06-05T08:12:59.027Z,21.1
2023-06-05T08:14:11.983Z,21.3
2023-06-05T08:15:25.198Z,21.3
2023-06-05T08:16:38.020Z,21.3
2023-06-05T08:17:51.028Z,21.3
2023-06-05T08:19:04.021Z,21.3
2023-06-05T08:20:17.027Z,21.4
2023-06-05T08:21:29.968Z,21.5
2023-06-05T08:22:42.985Z,21.5
2023-06-05T08:23:56.117Z,21.4
2023-06-05T08:25:09.023Z,21.5
2023-06-05T08:26:22.013Z,21.5
2023-06-05T08:27:34.972Z,21.6
2023-06-05T08:28:48.009Z,21.6
2023-06-05T08:30:01.026Z,21.6
2023-06-05T08:31:14.111Z,21.6
2023-06-05T08:32:26.986Z,21.6
2023-06-05T08:33:40.006Z,21.6
2023-06-05T08:34:53.110Z,21.6
2023-06-05T08:36:06.049Z,21.8
2023-06-05T08:37:18.997Z,21.8
2023-06-05T08:38:32.022Z,21.9
2023-06-05T08:39:44.750Z,22
2023-06-05T08:40:58.068Z,22
2023-06-05T08:42:10.977Z,22
2023-06-05T08:43:24.108Z,22
2023-06-05T08:44:38.954Z,22
2023-06-05T08:45:49.962Z,22
2023-06-05T08:47:02.997Z,22
2023-06-05T08:48:16.145Z,22
2023-06-05T08:49:28.969Z,22
2023-06-05T08:50:42.074Z,22
2023-06-05T08:51:54.970Z,22
2023-06-05T08:53:08.145Z,22
2023-06-05T08:54:21.015Z,22.1
2023-06-05T08:55:33.984Z,22.2
2023-06-05T08:56:46.988Z,22.2
2023-06-05T08:57:59.999Z,22.2
2023-06-05T08:59:12.863Z,22.2
2023-06-05T09:00:26.144Z,22.2
2023-06-05T09:01:39.351Z,22.2
2023-06-05T09:02:52.024Z,22.2
2023-06-05T09:04:05.147Z,22.4
2023-06-05T09:05:18.150Z,22.3
2023-06-05T09:06:31.040Z,22.3
2023-06-05T09:07:43.961Z,22.3
2023-06-05T09:08:57.008Z,22.3
2023-06-05T09:10:10.000Z,22.6
2023-06-05T09:11:23.527Z,22.6
2023-06-05T09:12:35.984Z,22.6
2023-06-05T09:13:49.022Z,22.6
2023-06-05T09:15:02.017Z,22.6
2023-06-05T09:16:15.066Z,22.6
2023-06-05T09:17:28.067Z,22.4
2023-06-05T09:18:41.098Z,22.3
2023-06-05T09:19:53.982Z,22.3
2023-06-05T09:21:07.066Z,22.3
2023-06-05T09:22:20.022Z,22.3
2023-06-05T09:23:33.010Z,22.3
2023-06-05T09:24:45.961Z,22.3
2023-06-05T09:25:58.979Z,22.3
2023-06-05T09:27:11.956Z,22.3
2023-06-05T09:28:24.950Z,22.4
2023-06-05T09:29:37.953Z,22.6
2023-06-05T09:30:50.946Z,22.6
2023-06-05T09:32:03.964Z,22.6
2023-06-05T09:33:16.956Z,22.6
2023-06-05T09:34:29.994Z,22.7
2023-06-05T09:35:43.030Z,22.9
2023-06-05T09:36:55.941Z,22.9
2023-06-05T09:38:08.947Z,23.1
2023-06-05T09:39:21.938Z,23.1
2023-06-05T09:40:34.963Z,23.1
2023-06-05T09:41:47.993Z,23.1
2023-06-05T09:43:00.993Z,23.2
2023-06-05T09:44:14.004Z,23.4
2023-06-05T09:45:27.028Z,23.4
2023-06-05T09:46:39.931Z,23.4
2023-06-05T09:47:54.267Z,23.4
2023-06-05T09:49:06.002Z,23.4
2023-06-05T09:50:19.056Z,23.4
2023-06-05T09:51:31.971Z,23.2
2023-06-05T09:52:44.962Z,23.2
2023-06-05T09:53:57.944Z,23.2
2023-06-05T09:55:10.999Z,23.2
2023-06-05T09:56:24.031Z,23.2
2023-06-05T09:57:37.088Z,23.2
2023-06-05T09:58:50.095Z,23.2
2023-06-05T10:00:02.983Z,23.2
2023-06-05T10:01:15.946Z,23.2
2023-06-05T10:02:28.956Z,23.2
2023-06-05T10:03:41.950Z,23.4
2023-06-05T10:04:54.956Z,23.4
2023-06-05T10:06:15.796Z,23.4
2023-06-05T10:07:20.929Z,23.4
2023-06-05T10:08:33.961Z,23.3
2023-06-05T10:09:46.943Z,23.3
2023-06-05T10:10:59.956Z,23.4
2023-06-05T10:12:12.999Z,23.2
2023-06-05T10:13:26.000Z,23.2
2023-06-05T10:14:38.908Z,23.4
2023-06-05T10:15:52.018Z,23.4
2023-06-05T10:17:05.044Z,23.5
2023-06-05T10:18:17.985Z,23.6
2023-06-05T10:19:30.988Z,23.6
2023-06-05T10:20:43.806Z,23.6
2023-06-05T10:21:56.824Z,23.4
2023-06-05T10:23:09.946Z,23.6
2023-06-05T10:24:22.957Z,23.6
2023-06-05T10:25:36.010Z,23.6
2023-06-05T10:26:48.987Z,23.6
2023-06-05T10:28:01.960Z,23.6
2023-06-05T10:29:14.850Z,23.6
2023-06-05T10:30:27.968Z,23.6
2023-06-05T10:31:40.991Z,23.6
2023-06-05T10:32:54.009Z,23.6
2023-06-05T10:34:06.972Z,23.6
2023-06-05T10:35:19.943Z,23.6
2023-06-05T10:36:33.020Z,23.6
2023-06-05T10:37:47.257Z,23.6
2023-06-05T10:38:58.939Z,23.6
2023-06-05T10:40:11.952Z,23.6
2023-06-05T10:41:25.291Z,23.6
2023-06-05T10:42:38.267Z,23.6
2023-06-05T10:43:50.790Z,23.6
2023-06-05T10:45:03.928Z,23.6
2023-06-05T10:46:17.316Z,23.6
2023-06-05T10:47:30.325Z,23.6
2023-06-05T10:48:42.997Z,23.6
2023-06-05T10:49:55.801Z,23.6
2023-06-05T10:51:09.434Z,23.6
2023-06-05T10:52:21.785Z,23.4
2023-06-05T10:53:34.917Z,23.4
2023-06-05T10:54:47.911Z,23.4
2023-06-05T10:56:00.971Z,23.4
2023-06-05T10:57:13.932Z,23.4
2023-06-05T10:58:26.653Z,23.4
2023-06-05T10:59:40.008Z,23.4
2023-06-05T11:00:53.138Z,23.4
2023-06-05T11:02:06.002Z,23.4
2023-06-05T11:03:19.332Z,23.4
2023-06-05T11:04:32.085Z,23.4
2023-06-05T11:05:44.901Z,23.4
2023-06-05T11:06:58.081Z,23.4
2023-06-05T11:08:11.123Z,23.4
2023-06-05T11:10:37.078Z,23.4
2023-06-05T11:11:49.940Z,23.4
2023-06-05T11:13:02.918Z,23.4
2023-06-05T11:14:15.774Z,23.4
2023-06-05T11:15:28.971Z,23.4
2023-06-05T11:16:41.841Z,23.4
2023-06-05T11:17:55.277Z,23.4
2023-06-05T11:19:07.909Z,23.4
2023-06-05T11:20:20.908Z,23.4
2023-06-05T11:21:33.922Z,23.4
2023-06-05T11:22:46.935Z,23.4
2023-06-05T11:23:59.953Z,23.4
2023-06-05T11:25:12.907Z,23.4
2023-06-05T11:26:25.907Z,23.4
2023-06-05T11:27:38.921Z,23.4
2023-06-05T11:28:51.932Z,23.4
2023-06-05T11:30:05.362Z,23.4
2023-06-05T11:31:18.008Z,23.4
2023-06-05T11:32:31.042Z,23.4
2023-06-05T11:33:44.018Z,23.6
2023-06-05T11:34:57.010Z,23.6
2023-06-05T11:36:10.180Z,23.6
2023-06-05T11:37:22.932Z,23.6
2023-06-05T11:38:36.250Z,23.6
2023-06-05T11:39:48.926Z,23.6
2023-06-05T11:41:01.921Z,23.6
2023-06-05T11:42:15.011Z,23.6
2023-06-05T11:43:27.789Z,23.6
2023-06-05T11:44:41.097Z,23.6
2023-06-05T11:45:53.973Z,23.6
2023-06-05T11:47:06.916Z,23.6
2023-06-05T11:48:19.926Z,23.4
2023-06-05T11:49:32.893Z,23.4
2023-06-05T11:50:45.933Z,23.4
2023-06-05T11:51:58.987Z,23.4
2023-06-05T11:53:11.990Z,23.4
2023-06-05T11:54:24.900Z,23.4
2023-06-05T11:55:37.906Z,23.4
2023-06-05T11:56:50.894Z,23.4
2023-06-05T11:58:03.896Z,23.4
2023-06-05T11:59:16.934Z,23.4
2023-06-05T12:00:29.901Z,23.4
2023-06-05T12:01:42.994Z,23.4
2023-06-05T12:02:55.948Z,23.4
2023-06-05T12:04:08.904Z,23.4
2023-06-05T12:05:21.920Z,23.4
2023-06-05T12:06:34.874Z,23.4
2023-06-05T12:07:47.888Z,23.4
2023-06-05T12:09:00.888Z,23.4
2023-06-05T12:10:13.929Z,23.4
2023-06-05T12:11:26.960Z,23.4
2023-06-05T12:12:40.048Z,23.4
2023-06-05T12:13:52.888Z,23.5
2023-06-05T12:15:05.882Z,23.6
2023-06-05T12:16:18.938Z,23.6
2023-06-05T12:17:31.954Z,23.6
2023-06-05T12:18:44.974Z,23.7
2023-06-05T12:19:57.984Z,23.7
2023-06-05T12:21:10.910Z,23.7
2023-06-05T12:22:23.963Z,23.7
2023-06-05T12:23:36.936Z,23.7
2023-06-05T12:24:49.959Z,23.7
2023-06-05T12:26:02.877Z,23.7
2023-06-05T12:27:15.879Z,23.6
2023-06-05T12:28:29.031Z,23.6
2023-06-05T12:29:41.900Z,23.7
2023-06-05T12:30:54.879Z,23.7
2023-06-05T12:32:07.897Z,23.7
2023-06-05T12:33:20.896Z,23.7
2023-06-05T12:34:43.514Z,23.7
2023-06-05T12:35:46.913Z,23.7
2023-06-05T12:36:59.916Z,23.7
2023-06-05T12:38:12.937Z,23.7
2023-06-05T12:39:25.880Z,23.7
2023-06-05T12:40:39.165Z,23.7
2023-06-05T12:41:51.854Z,23.7
2023-06-05T12:43:04.930Z,23.7
2023-06-05T12:44:17.884Z,23.7
2023-06-05T12:45:30.926Z,23.7
2023-06-05T12:46:43.903Z,23.7
2023-06-05T12:47:56.902Z,23.7
2023-06-05T12:49:09.880Z,23.8
2023-06-05T12:50:23.081Z,23.9
2023-06-05T12:51:35.968Z,23.9
2023-06-05T12:52:48.860Z,23.9
2023-06-05T12:54:01.876Z,23.9
2023-06-05T12:55:14.862Z,23.9
2023-06-05T12:56:27.926Z,23.9
2023-06-05T12:57:40.914Z,23.9
2023-06-05T12:58:53.855Z,23.9
2023-06-05T13:00:06.949Z,23.9
2023-06-05T13:01:20.082Z,23.9
2023-06-05T13:02:33.032Z,23.9
2023-06-05T13:03:45.962Z,23.9
2023-06-05T13:04:58.856Z,23.9
2023-06-05T13:06:11.928Z,23.9
2023-06-05T13:07:24.852Z,23.9
2023-06-05T13:08:37.842Z,24
2023-06-05T13:09:50.890Z,24.1
2023-06-05T13:11:03.918Z,24.1
2023-06-05T13:12:16.859Z,24.1
2023-06-05T13:13:29.875Z,24.1
2023-06-05T13:14:42.833Z,24.1
2023-06-05T13:15:55.824Z,24.1
2023-06-05T13:17:08.867Z,24.1
2023-06-05T13:18:21.850Z,24.1
2023-06-05T13:19:34.904Z,24.1
2023-06-05T13:20:47.951Z,24.1
2023-06-05T13:22:00.856Z,24.1
2023-06-05T13:23:13.925Z,24.1
2023-06-05T13:24:27.004Z,24.1
2023-06-05T13:25:39.820Z,24.1
2023-06-05T13:26:52.904Z,24.1
2023-06-05T13:28:06.038Z,24.1
2023-06-05T13:29:18.935Z,24.1
2023-06-05T13:30:31.828Z,24.1
2023-06-05T13:31:44.907Z,24.1
2023-06-05T13:32:57.891Z,24.1
2023-06-05T13:34:10.857Z,24.1
2023-06-05T13:35:23.842Z,24
2023-06-05T13:36:36.880Z,23.9
2023-06-05T13:37:49.935Z,23.9
2023-06-05T13:39:03.901Z,24.1
2023-06-05T13:40:15.804Z,24.1
2023-06-05T13:41:28.879Z,24.1
2023-06-05T13:42:41.887Z,24.1
2023-06-05T13:43:54.827Z,24.1
2023-06-05T13:45:07.906Z,24.1
2023-06-05T13:46:20.853Z,24
2023-06-05T13:47:33.846Z,23.9
2023-06-05T13:48:47.026Z,23.9
2023-06-05T13:49:59.855Z,23.9
2023-06-05T13:51:12.882Z,23.9
2023-06-05T13:52:25.852Z,23.9
2023-06-05T13:53:38.859Z,23.9
2023-06-05T13:54:51.849Z,23.9
2023-06-05T13:56:04.829Z,23.9
2023-06-05T13:57:17.821Z,23.9
2023-06-05T13:58:30.940Z,23.9
2023-06-05T13:59:43.842Z,23.9
2023-06-05T14:00:56.812Z,23.9
2023-06-05T14:02:09.940Z,24
2023-06-05T14:03:22.890Z,24.1
2023-06-05T14:04:35.835Z,24.1
2023-06-05T14:05:48.831Z,24.1
2023-06-05T14:07:01.829Z,24.1
2023-06-05T14:08:15.079Z,24.1
2023-06-05T14:09:28.027Z,24
2023-06-05T14:10:40.815Z,23.9
2023-06-05T14:11:53.984Z,23.9
2023-06-05T14:13:06.799Z,23.9
2023-06-05T14:14:19.978Z,23.9
2023-06-05T14:15:32.731Z,23.9
2023-06-05T14:16:45.843Z,23.9
2023-06-05T14:17:58.960Z,23.9
2023-06-05T14:19:12.010Z,24.1
2023-06-05T14:20:24.885Z,24.1
2023-06-05T14:21:37.862Z,24.1
2023-06-05T14:22:50.826Z,24.1
2023-06-05T14:24:03.844Z,24.1
2023-06-05T14:25:16.830Z,24.1
2023-06-05T14:26:31.573Z,24.1
2023-06-05T14:27:42.862Z,24.1
2023-06-05T14:28:55.833Z,24.1
2023-06-05T14:30:08.856Z,24.1
2023-06-05T14:31:22.011Z,24.1
2023-06-05T14:32:34.908Z,24.1
2023-06-05T14:33:48.081Z,24.1
2023-06-05T14:35:00.846Z,24.1
2023-06-05T14:36:13.809Z,24.1
2023-06-05T14:37:26.841Z,24.1
2023-06-05T14:38:39.835Z,24.1
2023-06-05T14:39:52.803Z,24.1
2023-06-05T14:41:05.800Z,24.1
2023-06-05T14:42:18.890Z,24.1
2023-06-05T14:43:31.852Z,24.1
2023-06-05T14:44:44.888Z,24.1
2023-06-05T14:45:57.876Z,24.1
2023-06-05T14:47:10.804Z,24.1
2023-06-05T14:48:23.811Z,24.1
2023-06-05T14:49:36.783Z,24.1
2023-06-05T14:50:49.964Z,24.1
2023-06-05T14:52:02.877Z,24.1
2023-06-05T14:53:15.770Z,24.1
2023-06-05T14:54:28.838Z,24.1
2023-06-05T14:55:41.924Z,24.1
2023-06-05T14:56:54.817Z,24.1
2023-06-05T14:58:07.802Z,24.1
2023-06-05T15:00:33.824Z,24.1
2023-06-05T15:01:46.848Z,24.1
2023-06-05T15:02:59.862Z,24.1
2023-06-05T15:04:12.840Z,24.1
2023-06-05T15:05:25.967Z,24.1
2023-06-05T15:06:38.786Z,24.1
2023-06-05T15:07:51.804Z,24.1
2023-06-05T15:09:05.033Z,24.1
2023-06-05T15:10:17.800Z,24.1
2023-06-05T15:11:30.808Z,24.1
2023-06-05T15:12:43.816Z,24.2
2023-06-05T15:13:56.778Z,24.3
2023-06-05T15:16:29.348Z,24.3
2023-06-05T15:17:35.933Z,24.3
2023-06-05T15:18:48.802Z,24.3
2023-06-05T15:20:01.857Z,24.3
2023-06-05T15:21:14.834Z,24.3
2023-06-05T15:22:27.870Z,24.3
2023-06-05T15:23:40.794Z,24.3
2023-06-05T15:24:53.796Z,24.3
2023-06-05T15:26:06.755Z,24.3
2023-06-05T15:27:19.840Z,24.3
2023-06-05T15:28:32.819Z,24.3
2023-06-05T15:29:45.779Z,24.3
2023-06-05T15:30:58.848Z,24.3
2023-06-05T15:33:24.873Z,24.3
2023-06-05T15:34:39.452Z,24.3
2023-06-05T15:35:50.827Z,24.3
2023-06-05T15:37:03.814Z,24.3
2023-06-05T15:38:16.777Z,24.2
2023-06-05T15:39:29.802Z,24.2
2023-06-05T15:40:42.781Z,24.2
2023-06-05T15:41:55.782Z,24.2
2023-06-05T15:43:08.765Z,24.3
2023-06-05T15:44:21.797Z,24.3
2023-06-05T15:45:34.853Z,24.3
2023-06-05T15:46:47.819Z,24.3
2023-06-05T15:48:00.788Z,24.3
2023-06-05T15:49:13.808Z,24.3
2023-06-05T15:50:26.777Z,24.3
2023-06-05T15:51:39.785Z,24.3
2023-06-05T15:52:52.953Z,24.3
2023-06-05T15:54:21.191Z,24.3
2023-06-05T15:55:18.768Z,24.3
2023-06-05T15:56:31.783Z,24.3
2023-06-05T15:57:44.795Z,24.3
2023-06-05T15:58:57.775Z,24.1
2023-06-05T16:00:10.734Z,24.1
2023-06-05T16:01:24.015Z,24.1
2023-06-05T16:02:36.779Z,24.1
2023-06-05T16:03:49.787Z,24.3
2023-06-05T16:05:02.748Z,24.3
2023-06-05T16:06:15.737Z,24.1
2023-06-05T16:07:30.434Z,24.1
2023-06-05T16:08:41.784Z,24.1
2023-06-05T16:09:54.817Z,24.1
2023-06-05T16:11:07.908Z,24.1
2023-06-05T16:12:20.754Z,24.1
2023-06-05T16:13:33.761Z,24.1
2023-06-05T16:14:46.936Z,24.1
2023-06-05T16:15:59.959Z,24.1
2023-06-05T16:17:12.776Z,24.1
2023-06-05T16:18:25.822Z,24.1
2023-06-05T16:19:38.778Z,24.1
2023-06-05T16:20:51.833Z,24.1
2023-06-05T16:22:04.857Z,24.1
2023-06-05T16:23:17.869Z,24.1
2023-06-05T16:24:30.798Z,24.1
2023-06-05T16:25:43.908Z,24.1
2023-06-05T16:26:56.779Z,24.1
2023-06-05T16:28:09.793Z,24.1
2023-06-05T16:29:22.783Z,24.1
2023-06-05T16:30:35.751Z,24.1
2023-06-05T16:31:48.821Z,24.1
2023-06-05T16:33:01.821Z,24.1
2023-06-05T16:34:14.828Z,24.1
2023-06-05T16:35:27.767Z,24.1
2023-06-05T16:36:40.751Z,24.1
2023-06-05T16:37:53.747Z,24.1
2023-06-05T16:39:06.800Z,24
2023-06-05T16:40:20.032Z,23.9
2023-06-05T16:41:32.722Z,23.9
2023-06-05T16:42:45.775Z,23.9
2023-06-05T16:43:58.870Z,23.9
2023-06-05T16:45:11.765Z,23.9
2023-06-05T16:46:24.940Z,23.9
2023-06-05T16:47:37.791Z,23.9
2023-06-05T16:48:50.760Z,23.9
2023-06-05T16:50:03.817Z,23.9
2023-06-05T16:52:29.827Z,23.9
2023-06-05T16:53:42.737Z,23.9
2023-06-05T16:54:55.864Z,23.9
2023-06-05T16:56:08.982Z,23.9
2023-06-05T16:57:21.937Z,23.9
2023-06-05T16:58:34.794Z,23.7
2023-06-05T16:59:47.764Z,23.7
2023-06-05T17:01:00.644Z,23.7
2023-06-05T17:02:13.902Z,23.7
2023-06-05T17:03:27.063Z,23.7
2023-06-05T17:04:40.328Z,23.7
2023-06-05T17:05:53.330Z,23.7
2023-06-05T17:07:05.837Z,23.7
2023-06-05T17:08:18.855Z,23.7
2023-06-05T17:09:32.366Z,23.7
2023-06-05T17:10:44.786Z,23.7
2023-06-05T17:11:57.775Z,23.7
2023-06-05T17:13:10.804Z,23.7